createdAt,value
2022-09-23T00:00:49.871Z,97.5
2022-09-23T00:01:49.927Z,97.3
2022-09-23T00:02:49.939Z,97.1
2022-09-23T00:03:49.850Z,97.1
2022-09-23T00:05:49.854Z,97
2022-09-23T00:06:49.845Z,97.1
2022-09-23T00:07:49.847Z,97.2
2022-09-23T00:08:49.858Z,97.2
2022-09-23T00:09:49.887Z,97.4
2022-09-23T00:10:49.855Z,98.2
2022-09-23T00:11:49.863Z,98.3
2022-09-23T00:12:49.858Z,98.3
2022-09-23T00:13:49.856Z,98.1
2022-09-23T00:15:49.855Z,98.5
2022-09-23T00:16:49.978Z,98.6
2022-09-23T00:17:49.853Z,98.3
2022-09-23T00:18:49.850Z,98.2
2022-09-23T00:19:49.850Z,98
2022-09-23T00:21:49.893Z,98.7
2022-09-23T00:22:49.949Z,98.8
2022-09-23T00:23:49.850Z,98.7
2022-09-23T00:24:49.861Z,98.5
2022-09-23T00:25:49.859Z,98.2
2022-09-23T00:26:49.852Z,98.5
2022-09-23T00:27:49.856Z,98.4
2022-09-23T00:28:49.880Z,98.3
2022-09-23T00:29:49.873Z,98.2
2022-09-23T00:30:49.931Z,98.5
2022-09-23T00:31:49.885Z,98.3
2022-09-23T00:32:49.858Z,97.9
2022-09-23T00:33:49.874Z,97.7
2022-09-23T00:34:49.866Z,97.9
2022-09-23T00:35:49.875Z,98.4
2022-09-23T00:36:49.860Z,98.3
2022-09-23T00:37:49.859Z,98
2022-09-23T00:39:49.880Z,98.4
2022-09-23T00:40:49.952Z,97.9
2022-09-23T00:41:49.876Z,98.8
2022-09-23T00:42:49.864Z,98.7
2022-09-23T00:43:49.864Z,98.5
2022-09-23T00:44:49.871Z,98.4
2022-09-23T00:45:49.899Z,98.4
2022-09-23T00:46:49.941Z,98.7
2022-09-23T00:47:49.865Z,98.5
2022-09-23T00:48:49.863Z,98.5
2022-09-23T00:49:49.867Z,98.3
2022-09-23T00:50:49.875Z,98
2022-09-23T00:51:49.864Z,98.3
2022-09-23T00:52:49.887Z,98.5
2022-09-23T00:53:49.866Z,98
2022-09-23T00:54:49.874Z,98.5
2022-09-23T00:55:49.869Z,98.7
2022-09-23T00:56:49.869Z,98.5
2022-09-23T00:57:49.877Z,98.9
2022-09-23T00:58:49.878Z,98.9
2022-09-23T00:59:49.874Z,98.9
2022-09-23T01:00:49.891Z,98.9
2022-09-23T01:01:49.946Z,98.6
2022-09-23T01:02:49.961Z,98.9
2022-09-23T01:03:49.877Z,98.9
2022-09-23T01:04:49.880Z,99.1
2022-09-23T01:05:49.878Z,99.1
2022-09-23T01:06:49.944Z,99.2
2022-09-23T01:07:49.898Z,99.5
2022-09-23T01:08:49.873Z,100
2022-09-23T01:09:49.878Z,99.8
2022-09-23T01:10:49.877Z,99.7
2022-09-23T01:11:49.880Z,99.7
2022-09-23T01:12:49.872Z,99.4
2022-09-23T01:13:49.865Z,99.2
2022-09-23T01:14:49.882Z,98.9
2022-09-23T01:15:49.873Z,99
2022-09-23T01:16:49.949Z,99
2022-09-23T01:17:49.883Z,99.3
2022-09-23T01:18:49.891Z,99.3
2022-09-23T01:19:49.875Z,99.2
2022-09-23T01:20:49.881Z,98.9
2022-09-23T01:21:49.909Z,98.8
2022-09-23T01:22:49.876Z,98.8
2022-09-23T01:23:49.894Z,99
2022-09-23T01:24:49.878Z,99.4
2022-09-23T01:25:49.880Z,99.7
2022-09-23T01:26:49.879Z,99.5
2022-09-23T01:27:49.871Z,99.1
2022-09-23T01:28:49.887Z,99.2
2022-09-23T01:29:49.877Z,99.1
2022-09-23T01:30:49.952Z,99.2
2022-09-23T01:31:49.891Z,99.2
2022-09-23T01:32:49.879Z,99.2
2022-09-23T01:33:49.883Z,99.1
2022-09-23T01:34:49.885Z,99.2
2022-09-23T01:35:49.882Z,99
2022-09-23T01:36:49.885Z,99.1
2022-09-23T01:37:49.883Z,99
2022-09-23T01:38:49.889Z,98.5
2022-09-23T01:39:49.917Z,98.5
2022-09-23T01:40:49.923Z,98.5
2022-09-23T01:41:49.881Z,99.1
2022-09-23T01:42:49.883Z,99.4
2022-09-23T01:43:49.900Z,99.7
2022-09-23T01:44:49.895Z,99.6
2022-09-23T01:45:49.884Z,99.2
2022-09-23T01:46:49.889Z,99.2
2022-09-23T01:47:49.925Z,99.2
2022-09-23T01:49:49.894Z,99.3
2022-09-23T01:50:49.891Z,99
2022-09-23T01:51:49.892Z,99
2022-09-23T01:52:49.909Z,99
2022-09-23T01:53:49.885Z,99.4
2022-09-23T01:54:49.918Z,99.7
2022-09-23T01:55:49.906Z,99.7
2022-09-23T01:56:49.890Z,99.3
2022-09-23T01:57:49.885Z,99.4
2022-09-23T01:58:49.885Z,99.9
2022-09-23T01:59:49.885Z,100
2022-09-23T02:00:50.015Z,100
2022-09-23T02:01:49.888Z,100
2022-09-23T02:02:50.155Z,99.7
2022-09-23T02:03:49.893Z,99.7
2022-09-23T02:04:49.889Z,99.7
2022-09-23T02:05:49.896Z,99.8
2022-09-23T02:06:49.889Z,99.8
2022-09-23T02:07:49.892Z,100
2022-09-23T02:08:49.913Z,100
2022-09-23T02:10:49.891Z,99.9
2022-09-23T02:12:49.902Z,99.7
2022-09-23T02:13:49.894Z,100
2022-09-23T02:14:49.893Z,99.7
2022-09-23T02:15:49.902Z,100
2022-09-23T02:16:50.002Z,100
2022-09-23T02:17:49.896Z,100
2022-09-23T02:18:49.893Z,100
2022-09-23T02:19:49.900Z,100
2022-09-23T02:20:49.901Z,100
2022-09-23T02:21:49.893Z,100
2022-09-23T02:22:49.899Z,99.9
2022-09-23T02:23:49.910Z,100
2022-09-23T02:24:49.900Z,99.9
2022-09-23T02:25:49.930Z,99.5
2022-09-23T02:26:49.892Z,99.8
2022-09-23T02:27:49.914Z,100
2022-09-23T02:28:49.898Z,100
2022-09-23T02:29:49.900Z,100
2022-09-23T02:30:49.903Z,100
2022-09-23T02:31:49.918Z,100
2022-09-23T02:33:49.900Z,100
2022-09-23T02:34:49.905Z,100
2022-09-23T02:35:49.899Z,100
2022-09-23T02:36:49.906Z,100
2022-09-23T02:37:49.916Z,100
2022-09-23T02:38:49.909Z,100
2022-09-23T02:39:49.903Z,100
2022-09-23T02:40:49.963Z,100
2022-09-23T02:41:49.910Z,99.7
2022-09-23T02:42:49.907Z,99.5
2022-09-23T02:43:49.898Z,99.4
2022-09-23T02:44:49.915Z,99.6
2022-09-23T02:45:49.960Z,99.9
2022-09-23T02:46:49.911Z,100
2022-09-23T02:47:49.929Z,100
2022-09-23T02:48:49.907Z,100
2022-09-23T02:49:49.908Z,100
2022-09-23T02:50:49.911Z,100
2022-09-23T02:51:49.914Z,100
2022-09-23T02:52:49.922Z,100
2022-09-23T02:53:49.909Z,100
2022-09-23T02:54:49.910Z,100
2022-09-23T02:55:49.911Z,100
2022-09-23T02:56:49.939Z,100
2022-09-23T02:57:49.917Z,100
2022-09-23T02:58:49.914Z,100
2022-09-23T02:59:49.909Z,100
2022-09-23T03:00:50.013Z,100
2022-09-23T03:01:49.947Z,100
2022-09-23T03:02:49.913Z,100
2022-09-23T03:03:49.913Z,100
2022-09-23T03:04:49.922Z,100
2022-09-23T03:05:49.915Z,100
2022-09-23T03:06:49.916Z,100
2022-09-23T03:07:49.908Z,100
2022-09-23T03:08:49.922Z,100
2022-09-23T03:09:49.916Z,100
2022-09-23T03:10:49.920Z,100
2022-09-23T03:11:49.911Z,100
2022-09-23T03:12:49.919Z,100
2022-09-23T03:13:49.920Z,100
2022-09-23T03:14:49.915Z,100
2022-09-23T03:15:49.913Z,99.9
2022-09-23T03:16:50.005Z,100
2022-09-23T03:17:49.918Z,100
2022-09-23T03:18:49.915Z,100
2022-09-23T03:19:49.917Z,100
2022-09-23T03:20:49.922Z,100
2022-09-23T03:21:49.922Z,100
2022-09-23T03:22:49.912Z,100
2022-09-23T03:23:49.921Z,100
2022-09-23T03:24:53.892Z,100
2022-09-23T03:25:49.924Z,100
2022-09-23T03:26:49.915Z,100
2022-09-23T03:27:49.945Z,100
2022-09-23T03:28:49.934Z,100
2022-09-23T03:29:49.916Z,100
2022-09-23T03:30:49.926Z,100
2022-09-23T03:31:50.010Z,100
2022-09-23T03:32:49.918Z,100
2022-09-23T03:33:49.916Z,100
2022-09-23T03:34:49.929Z,100
2022-09-23T03:35:49.924Z,100
2022-09-23T03:36:49.917Z,100
2022-09-23T03:37:49.918Z,100
2022-09-23T03:38:49.926Z,100
2022-09-23T03:39:49.925Z,100
2022-09-23T03:40:49.987Z,100
2022-09-23T03:41:49.917Z,100
2022-09-23T03:42:49.933Z,100
2022-09-23T03:43:49.928Z,99.8
2022-09-23T03:45:49.981Z,100
2022-09-23T03:46:50.032Z,100
2022-09-23T03:47:49.920Z,100
2022-09-23T03:48:49.936Z,100
2022-09-23T03:49:49.925Z,100
2022-09-23T03:50:49.926Z,100
2022-09-23T03:51:49.920Z,100
2022-09-23T03:53:49.933Z,100
2022-09-23T03:54:49.934Z,100
2022-09-23T03:55:49.935Z,100
2022-09-23T03:56:49.926Z,100
2022-09-23T03:57:49.932Z,100
2022-09-23T03:58:49.955Z,100
2022-09-23T03:59:49.928Z,100
2022-09-23T04:00:50.049Z,100
2022-09-23T04:01:49.986Z,100
2022-09-23T04:02:49.944Z,100
2022-09-23T04:03:49.934Z,100
2022-09-23T04:04:49.930Z,100
2022-09-23T04:06:49.932Z,100
2022-09-23T04:07:49.925Z,100
2022-09-23T04:08:49.956Z,100
2022-09-23T04:09:49.932Z,100
2022-09-23T04:10:54.642Z,100
2022-09-23T04:11:49.934Z,100
2022-09-23T04:12:49.929Z,100
2022-09-23T04:13:49.934Z,100
2022-09-23T04:14:49.933Z,100
2022-09-23T04:15:49.932Z,100
2022-09-23T04:16:50.054Z,100
2022-09-23T04:17:49.931Z,100
2022-09-23T04:18:49.939Z,100
2022-09-23T04:19:49.936Z,100
2022-09-23T04:20:49.928Z,100
2022-09-23T04:21:49.933Z,100
2022-09-23T04:22:49.933Z,100
2022-09-23T04:23:49.932Z,100
2022-09-23T04:24:49.939Z,100
2022-09-23T04:25:49.938Z,100
2022-09-23T04:26:49.939Z,100
2022-09-23T04:27:49.932Z,100
2022-09-23T04:28:49.947Z,100
2022-09-23T04:29:50.040Z,100
2022-09-23T04:30:49.940Z,100
2022-09-23T04:31:50.027Z,100
2022-09-23T04:32:49.938Z,100
2022-09-23T04:33:49.945Z,100
2022-09-23T04:34:49.943Z,100
2022-09-23T04:35:49.940Z,100
2022-09-23T04:36:49.942Z,100
2022-09-23T04:37:49.945Z,100
2022-09-23T04:38:50.117Z,100
2022-09-23T04:39:49.970Z,100
2022-09-23T04:40:50.056Z,100
2022-09-23T04:41:49.947Z,100
2022-09-23T04:42:49.945Z,100
2022-09-23T04:44:49.972Z,100
2022-09-23T04:45:49.945Z,100
2022-09-23T04:46:50.052Z,100
2022-09-23T04:47:49.943Z,100
2022-09-23T04:48:49.944Z,100
2022-09-23T04:49:49.946Z,100
2022-09-23T04:50:49.951Z,100
2022-09-23T04:51:49.945Z,100
2022-09-23T04:52:49.945Z,100
2022-09-23T04:53:49.944Z,100
2022-09-23T04:54:49.948Z,100
2022-09-23T04:55:49.948Z,100
2022-09-23T04:56:49.951Z,100
2022-09-23T04:57:49.942Z,100
2022-09-23T04:58:49.946Z,100
2022-09-23T04:59:49.941Z,100
2022-09-23T05:00:50.052Z,100
2022-09-23T05:01:49.985Z,100
2022-09-23T05:02:49.951Z,100
2022-09-23T05:03:49.951Z,100
2022-09-23T05:04:49.947Z,100
2022-09-23T05:05:49.952Z,100
2022-09-23T05:06:49.947Z,100
2022-09-23T05:07:49.952Z,100
2022-09-23T05:08:49.952Z,100
2022-09-23T05:09:49.945Z,100
2022-09-23T05:10:49.955Z,100
2022-09-23T05:11:49.953Z,100
2022-09-23T05:12:53.566Z,100
2022-09-23T05:13:49.956Z,100
2022-09-23T05:14:49.947Z,100
2022-09-23T05:15:50.011Z,100
2022-09-23T05:16:49.943Z,100
2022-09-23T05:17:49.957Z,100
2022-09-23T05:18:49.946Z,100
2022-09-23T05:19:49.951Z,100
2022-09-23T05:20:50.180Z,100
2022-09-23T05:21:49.951Z,100
2022-09-23T05:22:49.955Z,100
2022-09-23T05:23:49.948Z,100
2022-09-23T05:24:49.962Z,100
2022-09-23T05:25:49.951Z,100
2022-09-23T05:26:49.948Z,100
2022-09-23T05:27:49.950Z,100
2022-09-23T05:28:49.964Z,100
2022-09-23T05:29:49.959Z,100
2022-09-23T05:30:50.021Z,100
2022-09-23T05:31:50.065Z,100
2022-09-23T05:32:49.961Z,100
2022-09-23T05:33:49.974Z,100
2022-09-23T05:34:49.979Z,100
2022-09-23T05:35:49.960Z,100
2022-09-23T05:36:49.958Z,100
2022-09-23T05:37:49.960Z,100
2022-09-23T05:39:49.969Z,100
2022-09-23T05:40:50.058Z,100
2022-09-23T05:41:49.961Z,100
2022-09-23T05:42:49.962Z,100
2022-09-23T05:43:49.959Z,100
2022-09-23T05:44:49.959Z,100
2022-09-23T05:45:49.964Z,100
2022-09-23T05:46:50.045Z,100
2022-09-23T05:47:49.975Z,100
2022-09-23T05:48:49.973Z,100
2022-09-23T05:49:59.664Z,100
2022-09-23T05:50:49.958Z,100
2022-09-23T05:51:49.956Z,100
2022-09-23T05:52:49.963Z,100
2022-09-23T05:53:49.964Z,100
2022-09-23T05:54:49.970Z,100
2022-09-23T05:55:50.107Z,100
2022-09-23T05:56:49.970Z,100
2022-09-23T05:57:49.977Z,100
2022-09-23T05:58:49.984Z,100
2022-09-23T06:00:49.988Z,100
2022-09-23T06:01:53.215Z,100
2022-09-23T06:02:50.225Z,100
2022-09-23T06:03:49.964Z,100
2022-09-23T06:04:49.971Z,100
2022-09-23T06:05:50.005Z,100
2022-09-23T06:06:49.970Z,100
2022-09-23T06:07:50.100Z,100
2022-09-23T06:08:49.963Z,100
2022-09-23T06:09:49.972Z,100
2022-09-23T06:10:54.408Z,100
2022-09-23T06:11:49.968Z,100
2022-09-23T06:12:49.985Z,100
2022-09-23T06:13:49.969Z,100
2022-09-23T06:14:49.984Z,100
2022-09-23T06:15:50.033Z,100
2022-09-23T06:16:49.978Z,100
2022-09-23T06:17:49.982Z,100
2022-09-23T06:18:49.972Z,100
2022-09-23T06:19:49.976Z,100
2022-09-23T06:20:50.053Z,100
2022-09-23T06:21:49.972Z,100
2022-09-23T06:22:53.167Z,100
2022-09-23T06:23:53.825Z,100
2022-09-23T06:24:49.977Z,100
2022-09-23T06:25:49.972Z,100
2022-09-23T06:26:49.976Z,100
2022-09-23T06:27:49.980Z,100
2022-09-23T06:28:49.991Z,100
2022-09-23T06:30:49.982Z,100
2022-09-23T06:31:50.073Z,100
2022-09-23T06:32:49.975Z,100
2022-09-23T06:33:50.844Z,100
2022-09-23T06:34:52.082Z,100
2022-09-23T06:35:57.464Z,100
2022-09-23T06:36:49.978Z,100
2022-09-23T06:37:49.998Z,100
2022-09-23T06:38:49.980Z,100
2022-09-23T06:39:49.999Z,100
2022-09-23T06:40:50.049Z,100
2022-09-23T06:41:49.974Z,100
2022-09-23T06:42:52.377Z,100
2022-09-23T06:43:49.985Z,100
2022-09-23T06:44:49.978Z,100
2022-09-23T06:45:49.986Z,100
2022-09-23T06:46:50.113Z,100
2022-09-23T06:47:49.977Z,100
2022-09-23T06:48:49.986Z,100
2022-09-23T06:49:50.003Z,100
2022-09-23T06:50:50.057Z,100
2022-09-23T06:51:49.985Z,100
2022-09-23T06:52:49.982Z,100
2022-09-23T06:53:49.988Z,100
2022-09-23T06:54:49.999Z,100
2022-09-23T06:55:49.991Z,100
2022-09-23T06:57:49.993Z,100
2022-09-23T06:58:49.984Z,100
2022-09-23T06:59:49.994Z,100
2022-09-23T07:00:50.031Z,100
2022-09-23T07:01:50.149Z,100
2022-09-23T07:02:50.073Z,100
2022-09-23T07:03:49.986Z,100
2022-09-23T07:04:50.012Z,100
2022-09-23T07:05:50.075Z,100
2022-09-23T07:06:49.988Z,100
2022-09-23T07:07:49.989Z,100
2022-09-23T07:08:49.989Z,100
2022-09-23T07:09:49.995Z,100
2022-09-23T07:10:50.011Z,100
2022-09-23T07:11:50.052Z,98.8
2022-09-23T07:12:50.000Z,98.9
2022-09-23T07:13:49.998Z,99.7
2022-09-23T07:14:49.994Z,99
2022-09-23T07:15:50.133Z,98.4
2022-09-23T07:16:49.995Z,98.8
2022-09-23T07:17:49.993Z,98.7
2022-09-23T07:18:50.007Z,99.2
2022-09-23T07:19:49.996Z,99.8
2022-09-23T07:20:49.991Z,100
2022-09-23T07:21:49.986Z,99.5
2022-09-23T07:22:49.996Z,98.8
2022-09-23T07:23:49.997Z,98.3
2022-09-23T07:24:49.998Z,97.6
2022-09-23T07:25:49.987Z,97.7
2022-09-23T07:26:49.993Z,97.2
2022-09-23T07:27:49.994Z,96.8
2022-09-23T07:28:50.010Z,96.8
2022-09-23T07:29:50.007Z,96.2
2022-09-23T07:30:59.029Z,94.2
2022-09-23T07:31:50.137Z,93.5
2022-09-23T07:32:50.092Z,92.8
2022-09-23T07:33:49.999Z,92.7
2022-09-23T07:34:50.005Z,92.9
2022-09-23T07:35:50.024Z,92.3
2022-09-23T07:36:49.998Z,92.2
2022-09-23T07:37:50.002Z,91.9
2022-09-23T07:38:50.005Z,92.3
2022-09-23T07:39:50.006Z,91.2
2022-09-23T07:40:50.046Z,90.1
2022-09-23T07:41:50.013Z,89.4
2022-09-23T07:42:50.000Z,90.1
2022-09-23T07:43:50.011Z,90.1
2022-09-23T07:44:50.008Z,86.8
2022-09-23T07:45:50.011Z,85.4
2022-09-23T07:46:50.088Z,86.2
2022-09-23T07:47:50.031Z,87.5
2022-09-23T07:48:50.005Z,86.5
2022-09-23T07:49:50.012Z,87.1
2022-09-23T07:50:50.011Z,83.8
2022-09-23T07:51:50.009Z,79.9
2022-09-23T07:52:50.012Z,81
2022-09-23T07:53:50.004Z,79.3
2022-09-23T07:54:50.012Z,79.4
2022-09-23T07:55:50.003Z,81.4
2022-09-23T07:56:50.011Z,78.7
2022-09-23T07:57:50.003Z,77.7
2022-09-23T07:58:50.013Z,78.3
2022-09-23T07:59:50.007Z,79
2022-09-23T08:00:50.008Z,78.2
2022-09-23T08:01:50.145Z,79
2022-09-23T08:02:53.002Z,78.5
2022-09-23T08:03:50.010Z,78.6
2022-09-23T08:04:50.013Z,75.1
2022-09-23T08:05:50.021Z,74.9
2022-09-23T08:06:50.040Z,74.1
2022-09-23T08:08:53.293Z,75.6
2022-09-23T08:09:50.018Z,77
2022-09-23T08:10:50.007Z,76.7
2022-09-23T08:11:50.008Z,74.9
2022-09-23T08:12:50.023Z,74.7
2022-09-23T08:13:50.019Z,74.6
2022-09-23T08:14:50.022Z,73.5
2022-09-23T08:15:55.228Z,73.6
2022-09-23T08:16:50.019Z,73.8
2022-09-23T08:17:50.017Z,71.8
2022-09-23T08:18:50.074Z,72.3
2022-09-23T08:19:50.020Z,72.7
2022-09-23T08:20:50.033Z,73.7
2022-09-23T08:21:50.049Z,73.4
2022-09-23T08:22:50.060Z,72.3
2022-09-23T08:23:50.027Z,73.3
2022-09-23T08:24:51.539Z,72.4
2022-09-23T08:25:50.018Z,72.4
2022-09-23T08:26:50.018Z,71.5
2022-09-23T08:27:50.023Z,71
2022-09-23T08:28:50.028Z,70.6
2022-09-23T08:29:50.017Z,70.7
2022-09-23T08:30:50.055Z,71.8
2022-09-23T08:31:50.027Z,72
2022-09-23T08:32:50.018Z,69.7
2022-09-23T08:33:50.023Z,70.2
2022-09-23T08:34:50.015Z,70.8
2022-09-23T08:35:50.024Z,71.4
2022-09-23T08:36:50.043Z,72.1
2022-09-23T08:37:50.042Z,71.5
2022-09-23T08:38:50.028Z,68.8
2022-09-23T08:39:50.028Z,68.3
2022-09-23T08:40:50.031Z,67.7
2022-09-23T08:41:51.362Z,67.9
2022-09-23T08:42:50.020Z,69.2
2022-09-23T08:43:50.040Z,69.3
2022-09-23T08:44:50.023Z,69.9
2022-09-23T08:45:50.092Z,69.4
2022-09-23T08:46:50.031Z,69.6
2022-09-23T08:47:50.032Z,69.4
2022-09-23T08:48:50.029Z,70.8
2022-09-23T08:49:50.032Z,71.4
2022-09-23T08:50:50.032Z,70.9
2022-09-23T08:51:50.023Z,68.2
2022-09-23T08:52:50.033Z,66.1
2022-09-23T08:53:50.034Z,67.4
2022-09-23T08:54:54.652Z,67.4
2022-09-23T08:55:50.027Z,67
2022-09-23T08:56:50.027Z,66.8
2022-09-23T08:57:57.612Z,68.1
2022-09-23T08:58:50.039Z,69.2
2022-09-23T08:59:50.064Z,69.3
2022-09-23T09:00:50.063Z,69.6
2022-09-23T09:01:50.128Z,68.6
2022-09-23T09:03:50.077Z,67.2
2022-09-23T09:05:54.143Z,68
2022-09-23T09:08:22.682Z,69
2022-09-23T09:15:12.308Z,67.9
2022-09-23T09:24:50.829Z,68.4
2022-09-23T09:28:35.019Z,65.4
2022-09-23T09:31:58.800Z,67.3
2022-09-23T09:33:12.901Z,65.4
2022-09-23T09:36:40.783Z,67.2
2022-09-23T09:50:34.395Z,64.7
2022-09-23T09:54:35.193Z,61.1
2022-09-23T09:58:46.237Z,57.4
2022-09-23T10:00:37.391Z,57.1
2022-09-23T10:05:33.788Z,59.6
2022-09-23T10:08:41.095Z,59.1
2022-09-23T10:10:33.567Z,57
2022-09-23T10:12:21.387Z,57.3
2022-09-23T10:13:00.422Z,68.5
2022-09-23T10:17:56.837Z,54.5
2022-09-23T10:19:10.946Z,55.8
2022-09-23T10:25:42.048Z,54.6
2022-09-23T10:26:02.612Z,53.7
2022-09-23T10:28:30.802Z,54.2
2022-09-23T10:29:44.915Z,54.6
2022-09-23T10:32:31.653Z,53.4
2022-09-23T10:34:59.826Z,56.3
2022-09-23T10:36:53.029Z,52.3
2022-09-23T10:37:30.076Z,51
2022-09-23T10:39:50.051Z,55.5
2022-09-23T10:43:41.482Z,53.1
2022-09-23T10:50:10.444Z,54
2022-09-23T10:52:19.925Z,55.1
2022-09-23T10:54:31.656Z,53.2
2022-09-23T10:54:50.224Z,52.7
2022-09-23T10:56:41.378Z,53.1
2022-09-23T10:57:55.429Z,53.4
2022-09-23T10:58:50.085Z,53.9
2022-09-23T11:02:53.262Z,51.4
2022-09-23T11:07:51.755Z,53
2022-09-23T11:08:50.078Z,51.9
2022-09-23T11:09:50.081Z,52.4
2022-09-23T11:10:50.089Z,53
2022-09-23T11:12:44.149Z,51.9
2022-09-23T11:14:35.434Z,52.4
2022-09-23T11:22:20.350Z,53.7
2022-09-23T11:24:50.242Z,51
2022-09-23T11:26:22.824Z,52.4
2022-09-23T11:29:11.890Z,52.5
2022-09-23T11:31:02.825Z,52.1
2022-09-23T11:33:30.923Z,51
2022-09-23T11:35:24.132Z,50.8
2022-09-23T11:35:42.655Z,53.7
2022-09-23T11:36:01.179Z,49.9
2022-09-23T11:36:56.757Z,53.8
2022-09-23T11:37:52.326Z,52.5
2022-09-23T11:39:24.988Z,49.7
2022-09-23T11:39:43.488Z,52.3
2022-09-23T11:40:20.599Z,47.6
2022-09-23T11:42:50.140Z,49.2
2022-09-23T11:43:50.088Z,49.5
2022-09-23T11:44:50.092Z,50.2
2022-09-23T11:45:50.160Z,50.3
2022-09-23T11:46:50.088Z,48.9
2022-09-23T11:47:50.083Z,48.9
2022-09-23T11:48:50.090Z,49.1
2022-09-23T11:49:50.108Z,49.5
2022-09-23T11:50:50.099Z,48.4
2022-09-23T11:51:50.091Z,50.4
2022-09-23T11:52:50.093Z,49.9
2022-09-23T11:53:50.098Z,49.4
2022-09-23T11:54:50.108Z,50.2
2022-09-23T11:55:57.117Z,49
2022-09-23T11:56:50.123Z,47.1
2022-09-23T11:57:50.100Z,47.9
2022-09-23T11:58:53.988Z,47.1
2022-09-23T11:59:50.129Z,47.3
2022-09-23T12:01:50.125Z,48.7
2022-09-23T12:03:01.552Z,50.7
2022-09-23T12:03:50.271Z,49.5
2022-09-23T12:04:57.295Z,48.3
2022-09-23T12:06:50.101Z,49.7
2022-09-23T12:07:50.103Z,47.2
2022-09-23T12:08:50.109Z,47.4
2022-09-23T12:09:58.725Z,48.4
2022-09-23T12:10:50.111Z,47.9
2022-09-23T12:11:50.108Z,47.5
2022-09-23T12:12:50.123Z,46
2022-09-23T12:13:50.130Z,47.3
2022-09-23T12:14:50.113Z,47.8
2022-09-23T12:15:50.113Z,48.7
2022-09-23T12:16:50.212Z,47.4
2022-09-23T12:17:50.105Z,47.2
2022-09-23T12:18:50.115Z,46.2
2022-09-23T12:19:50.171Z,44.3
2022-09-23T12:20:50.108Z,46.8
2022-09-23T12:21:51.444Z,45.4
2022-09-23T12:22:50.120Z,45.9
2022-09-23T12:23:50.119Z,46.5
2022-09-23T12:24:50.116Z,45.3
2022-09-23T12:25:50.116Z,45.9
2022-09-23T12:26:50.152Z,45.6
2022-09-23T12:27:50.121Z,45
2022-09-23T12:28:50.127Z,44.5
2022-09-23T12:29:50.118Z,46.4
2022-09-23T12:31:50.123Z,45.9
2022-09-23T12:32:50.119Z,45.7
2022-09-23T12:33:50.118Z,46.4
2022-09-23T12:34:50.129Z,45.8
2022-09-23T12:35:50.123Z,45.1
2022-09-23T12:36:50.135Z,46.2
2022-09-23T12:37:50.133Z,46.2
2022-09-23T12:38:50.127Z,47.5
2022-09-23T12:39:50.123Z,46.8
2022-09-23T12:40:50.175Z,47.7
2022-09-23T12:41:50.128Z,46.9
2022-09-23T12:42:50.138Z,47
2022-09-23T12:43:50.134Z,47
2022-09-23T12:44:50.211Z,46.7
2022-09-23T12:45:50.194Z,46.2
2022-09-23T12:46:50.130Z,47.8
2022-09-23T12:47:50.198Z,47.9
2022-09-23T12:49:50.143Z,47.8
2022-09-23T12:50:50.135Z,48.5
2022-09-23T12:51:50.132Z,49.7
2022-09-23T12:52:50.138Z,49.8
2022-09-23T12:53:50.140Z,50.1
2022-09-23T12:54:50.157Z,49.5
2022-09-23T12:55:50.137Z,48.3
2022-09-23T12:56:50.149Z,47.4
2022-09-23T12:57:50.145Z,47.2
2022-09-23T12:58:50.137Z,48.1
2022-09-23T12:59:50.141Z,48.4
2022-09-23T13:01:53.804Z,47.2
2022-09-23T13:02:50.136Z,47.3
2022-09-23T13:03:50.143Z,47.6
2022-09-23T13:04:50.148Z,47.4
2022-09-23T13:05:50.166Z,46.9
2022-09-23T13:06:50.150Z,48.1
2022-09-23T13:07:50.150Z,48.2
2022-09-23T13:08:50.147Z,48.3
2022-09-23T13:09:50.147Z,48.1
2022-09-23T13:10:50.149Z,48.6
2022-09-23T13:11:50.145Z,47.8
2022-09-23T13:12:50.169Z,46.5
2022-09-23T13:13:50.160Z,49.4
2022-09-23T13:14:50.150Z,47.5
2022-09-23T13:15:50.148Z,46.8
2022-09-23T13:16:50.222Z,49.5
2022-09-23T13:17:50.149Z,48.5
2022-09-23T13:18:50.155Z,48.5
2022-09-23T13:19:50.206Z,48.3
2022-09-23T13:20:50.154Z,49.1
2022-09-23T13:21:50.157Z,49.6
2022-09-23T13:22:50.202Z,48.5
2022-09-23T13:23:50.158Z,48.7
2022-09-23T13:24:50.158Z,46.8
2022-09-23T13:25:50.159Z,46.5
2022-09-23T13:26:50.178Z,46.3
2022-09-23T13:28:50.159Z,49.7
2022-09-23T13:29:50.158Z,48.6
2022-09-23T13:30:50.166Z,49.8
2022-09-23T13:31:50.238Z,50.1
2022-09-23T13:32:50.169Z,49.4
2022-09-23T13:33:50.209Z,49.4
2022-09-23T13:34:50.156Z,49.3
2022-09-23T13:35:50.161Z,48.3
2022-09-23T13:36:50.169Z,49.6
2022-09-23T13:37:50.167Z,49.4
2022-09-23T13:38:50.168Z,49.5
2022-09-23T13:39:50.169Z,48.1
2022-09-23T13:40:50.305Z,48.8
2022-09-23T13:41:50.164Z,49.6
2022-09-23T13:43:50.163Z,52
2022-09-23T13:44:50.166Z,52.6
2022-09-23T13:45:50.254Z,50.1
2022-09-23T13:46:50.175Z,49.8
2022-09-23T13:47:50.209Z,51.2
2022-09-23T13:48:50.179Z,51.9
2022-09-23T13:49:50.179Z,49.7
2022-09-23T13:50:50.178Z,49.7
2022-09-23T13:51:50.167Z,51.5
2022-09-23T13:52:50.174Z,50.7
2022-09-23T13:53:50.178Z,49.7
2022-09-23T13:54:50.316Z,50.1
2022-09-23T13:55:52.480Z,50
2022-09-23T13:56:50.176Z,50.4
2022-09-23T13:57:50.185Z,49.9
2022-09-23T13:58:50.179Z,49.8
2022-09-23T13:59:50.184Z,49.3
2022-09-23T14:01:50.276Z,48.5
2022-09-23T14:02:50.225Z,48.1
2022-09-23T14:04:50.258Z,46.9
2022-09-23T14:05:50.186Z,48.1
2022-09-23T14:06:50.188Z,47.4
2022-09-23T14:07:50.188Z,46.9
2022-09-23T14:08:50.288Z,48.9
2022-09-23T14:09:50.181Z,48.9
2022-09-23T14:10:50.195Z,48.8
2022-09-23T14:11:50.189Z,50.3
2022-09-23T14:12:50.197Z,49.1
2022-09-23T14:13:50.204Z,47.9
2022-09-23T14:14:50.303Z,48.3
2022-09-23T14:15:50.220Z,46.7
2022-09-23T14:16:50.318Z,47.2
2022-09-23T14:17:50.204Z,47.5
2022-09-23T14:18:50.203Z,47.9
2022-09-23T14:19:50.195Z,47.5
2022-09-23T14:20:50.225Z,48.1
2022-09-23T14:21:50.195Z,48.6
2022-09-23T14:22:50.212Z,48.8
2022-09-23T14:23:50.225Z,49.1
2022-09-23T14:25:50.222Z,48.9
2022-09-23T14:26:50.211Z,48.1
2022-09-23T14:27:50.217Z,48.9
2022-09-23T14:28:50.238Z,49
2022-09-23T14:29:50.264Z,49.2
2022-09-23T14:30:50.226Z,49.7
2022-09-23T14:31:50.320Z,50.9
2022-09-23T14:32:50.248Z,50.3
2022-09-23T14:33:50.269Z,50.3
2022-09-23T14:38:51.028Z,51.2
2022-09-23T14:41:50.212Z,51.4
2022-09-23T14:42:50.209Z,52.1
2022-09-23T14:43:50.211Z,52.7
2022-09-23T14:44:50.218Z,52
2022-09-23T14:45:50.281Z,53.3
2022-09-23T14:46:50.216Z,54
2022-09-23T14:47:50.213Z,53.1
2022-09-23T14:48:50.220Z,52.2
2022-09-23T14:49:50.218Z,52.6
2022-09-23T14:50:50.226Z,52.6
2022-09-23T14:51:50.223Z,51.6
2022-09-23T14:52:50.226Z,52.3
2022-09-23T14:53:50.221Z,50.9
2022-09-23T14:54:50.213Z,51.9
2022-09-23T14:55:50.222Z,52.1
2022-09-23T14:56:50.221Z,52.1
2022-09-23T14:57:50.224Z,52
2022-09-23T14:58:52.585Z,52
2022-09-23T14:59:50.226Z,52
2022-09-23T15:00:50.266Z,53.7
2022-09-23T15:01:50.231Z,53.7
2022-09-23T15:02:50.232Z,54.1
2022-09-23T15:03:50.254Z,53.7
2022-09-23T15:04:50.384Z,53.8
2022-09-23T15:05:50.222Z,53.5
2022-09-23T15:06:50.229Z,53.3
2022-09-23T15:07:50.231Z,54.1
2022-09-23T15:08:50.237Z,54.3
2022-09-23T15:09:50.236Z,55.4
2022-09-23T15:10:50.263Z,52.9
2022-09-23T15:11:50.246Z,53.4
2022-09-23T15:12:50.237Z,53.3
2022-09-23T15:13:50.235Z,53.5
2022-09-23T15:14:50.242Z,52.9
2022-09-23T15:15:50.236Z,52.5
2022-09-23T15:16:50.315Z,53.9
2022-09-23T15:17:50.238Z,53
2022-09-23T15:18:50.239Z,53.1
2022-09-23T15:19:50.242Z,54.1
2022-09-23T15:20:50.238Z,54.4
2022-09-23T15:21:50.241Z,54.1
2022-09-23T15:22:50.247Z,54
2022-09-23T15:23:50.239Z,55
2022-09-23T15:24:50.234Z,55.8
2022-09-23T15:25:50.270Z,55.4
2022-09-23T15:26:50.245Z,54.8
2022-09-23T15:27:50.244Z,54.8
2022-09-23T15:28:50.236Z,55.8
2022-09-23T15:29:50.247Z,55.7
2022-09-23T15:30:50.246Z,55.6
2022-09-23T15:31:50.311Z,54.7
2022-09-23T15:32:50.313Z,53.9
2022-09-23T15:33:50.252Z,54.4
2022-09-23T15:34:50.261Z,54.4
2022-09-23T15:35:50.276Z,54.5
2022-09-23T15:36:50.251Z,53.6
2022-09-23T15:37:50.252Z,53.6
2022-09-23T15:38:50.245Z,54.3
2022-09-23T15:39:50.270Z,54.3
2022-09-23T15:40:50.372Z,55.2
2022-09-23T15:41:50.256Z,55.8
2022-09-23T15:42:50.277Z,56.8
2022-09-23T15:44:50.260Z,55.4
2022-09-23T15:46:50.311Z,55.5
2022-09-23T15:47:50.259Z,55.8
2022-09-23T15:48:51.078Z,55.6